Time;durP1;ratioP1;P1;durP2;ratioP2;P2;SDS_P1;SDS_P2;PMS_P1;PMS_P2;Temp;Humidity;BMP_temperature;BMP_pressure;BME280_temperature;BME280_humidity;BME280_pressure;Samples;Min_cycle;Max_cycle;Signal;HPM_P1;HPM_P2
2022/12/18 00:01:51;;;;;;;57.60;29.50;;;-7.00;99.90;;;;;;4992510;28;20180;-69
2022/12/18 00:04:24;;;;;;;67.57;27.83;;;-6.90;99.90;;;;;;4992354;28;20183;-70
2022/12/18 00:06:50;;;;;;;51.13;27.93;;;-6.80;99.90;;;;;;4990559;28;20242;-70
2022/12/18 00:09:16;;;;;;;52.23;30.57;;;-6.70;99.90;;;;;;4991285;28;20474;-70
2022/12/18 00:11:41;;;;;;;51.30;28.60;;;-6.60;99.90;;;;;;4992918;28;20222;-71
2022/12/18 00:14:09;;;;;;;58.90;32.57;;;-6.60;99.90;;;;;;4992156;28;20198;-70
2022/12/18 00:16:36;;;;;;;59.83;29.47;;;-6.60;99.90;;;;;;4992271;28;20283;-70
2022/12/18 00:19:02;;;;;;;58.40;33.17;;;-6.60;99.90;;;;;;4989536;28;20847;-70
2022/12/18 00:21:29;;;;;;;58.30;31.07;;;-6.60;99.90;;;;;;4985410;28;20438;-70
2022/12/18 00:23:55;;;;;;;60.00;29.90;;;-6.60;99.90;;;;;;4991023;28;20852;-70
2022/12/18 00:26:28;;;;;;;50.37;30.77;;;-6.60;99.90;;;;;;4990152;28;20462;-71
2022/12/18 00:28:55;;;;;;;56.80;31.90;;;-6.60;99.90;;;;;;4989473;28;20211;-70
2022/12/18 00:31:23;;;;;;;58.07;30.47;;;-6.70;99.90;;;;;;4989421;28;20435;-70
2022/12/18 00:33:49;;;;;;;57.70;27.67;;;-6.70;99.90;;;;;;4985333;28;20593;-70
2022/12/18 00:36:17;;;;;;;64.50;32.63;;;-6.70;99.90;;;;;;4992500;28;20562;-70
2022/12/18 00:38:43;;;;;;;51.50;28.73;;;-6.60;99.90;;;;;;4989689;28;20188;-70
2022/12/18 00:41:10;;;;;;;47.80;27.73;;;-6.60;99.90;;;;;;4990742;28;20435;-70
2022/12/18 00:43:38;;;;;;;61.63;32.13;;;-6.60;99.90;;;;;;4991535;28;20180;-70
2022/12/18 00:46:03;;;;;;;63.63;29.67;;;-6.70;99.90;;;;;;4992146;28;20459;-70
2022/12/18 00:48:30;;;;;;;56.67;30.37;;;-6.60;99.90;;;;;;4992408;28;20815;-70
2022/12/18 00:50:55;;;;;;;55.53;31.13;;;-6.70;99.90;;;;;;4991070;28;20180;-70
2022/12/18 00:53:21;;;;;;;58.00;29.90;;;-6.70;99.90;;;;;;4992255;28;20818;-70
2022/12/18 00:55:47;;;;;;;50.73;29.67;;;-6.70;99.90;;;;;;4991171;28;20196;-70
2022/12/18 00:58:14;;;;;;;52.97;28.17;;;-6.70;99.90;;;;;;4991612;28;20768;-71
2022/12/18 01:00:40;;;;;;;50.97;26.50;;;-6.60;99.90;;;;;;4996155;28;20179;-70
2022/12/18 01:03:06;;;;;;;56.27;30.93;;;-6.60;99.90;;;;;;4993209;28;20449;-70
2022/12/18 01:05:32;;;;;;;50.73;27.17;;;-6.60;99.90;;;;;;4991858;28;20438;-70
2022/12/18 01:07:58;;;;;;;60.33;29.00;;;-6.70;99.90;;;;;;4991961;28;20265;-70
2022/12/18 01:10:24;;;;;;;55.40;28.53;;;-6.70;99.90;;;;;;4990272;28;20466;-70
2022/12/18 01:12:50;;;;;;;53.83;30.10;;;-6.80;99.90;;;;;;4991212;28;21002;-70
2022/12/18 01:15:16;;;;;;;50.67;26.77;;;-6.90;99.90;;;;;;4989874;28;20430;-70
2022/12/18 01:17:43;;;;;;;53.80;26.70;;;-7.00;99.90;;;;;;4991077;28;20269;-70
2022/12/18 01:20:10;;;;;;;56.57;31.30;;;-7.10;99.90;;;;;;4989351;28;20513;-70
2022/12/18 01:22:36;;;;;;;49.50;28.43;;;-7.20;99.90;;;;;;4991958;28;20500;-71
2022/12/18 01:25:03;;;;;;;55.03;29.40;;;-7.20;99.90;;;;;;4991105;28;20443;-70
2022/12/18 01:27:29;;;;;;;53.60;27.20;;;-7.20;99.90;;;;;;4989771;28;20195;-70
2022/12/18 01:29:55;;;;;;;59.30;29.53;;;-7.20;99.90;;;;;;4989599;28;20466;-70
2022/12/18 01:32:21;;;;;;;61.43;29.73;;;-7.20;99.90;;;;;;4991240;28;20457;-70
2022/12/18 01:34:47;;;;;;;54.67;28.93;;;-7.30;99.90;;;;;;4989560;28;20226;-70
2022/12/18 01:37:13;;;;;;;49.23;26.50;;;-7.30;99.90;;;;;;4986902;28;20462;-70
2022/12/18 01:39:38;;;;;;;45.90;26.33;;;-7.30;99.90;;;;;;4988449;28;20175;-70
2022/12/18 01:42:11;;;;;;;44.20;27.10;;;-7.30;99.90;;;;;;4989336;28;20230;-70
2022/12/18 01:45:21;;;;;;;41.67;23.57;;;-7.30;99.90;;;;;;4989182;28;20180;-71
2022/12/18 01:47:46;;;;;;;55.10;27.30;;;-7.30;99.90;;;;;;4981247;28;20455;-71
2022/12/18 01:50:14;;;;;;;50.37;24.97;;;-7.30;99.90;;;;;;4994150;28;21002;-70
2022/12/18 01:52:43;;;;;;;48.53;25.50;;;-7.30;99.90;;;;;;4991344;28;20184;-71
2022/12/18 01:55:10;;;;;;;47.73;24.50;;;-7.30;99.90;;;;;;4994059;28;20437;-70
2022/12/18 01:57:37;;;;;;;45.13;24.93;;;-7.20;99.90;;;;;;4993783;28;20507;-70
2022/12/18 02:00:13;;;;;;;50.73;25.03;;;-7.10;99.90;;;;;;4992762;28;20553;-70
2022/12/18 02:02:40;;;;;;;46.30;25.90;;;-7.10;99.90;;;;;;4989033;28;20445;-71
2022/12/18 02:05:06;;;;;;;45.47;24.17;;;-7.10;99.90;;;;;;4994739;28;20434;-70
2022/12/18 02:07:38;;;;;;;44.47;24.80;;;-7.00;99.90;;;;;;4993214;28;20524;-70
2022/12/18 02:10:15;;;;;;;43.27;22.63;;;-7.00;99.90;;;;;;4989959;28;20462;-70
2022/12/18 02:13:21;;;;;;;34.53;23.20;;;-7.10;99.90;;;;;;4993573;28;20445;-70
2022/12/18 02:16:15;;;;;;;39.50;21.50;;;-7.00;99.90;;;;;;4985008;28;20454;-70
2022/12/18 02:18:46;;;;;;;42.40;20.00;;;-7.00;99.90;;;;;;4960208;28;20480;-70
2022/12/18 02:21:38;;;;;;;36.07;19.87;;;-7.00;99.90;;;;;;4994060;28;20804;-70
2022/12/18 02:24:25;;;;;;;48.33;22.73;;;-7.00;99.90;;;;;;4991975;28;20462;-70
2022/12/18 02:26:56;;;;;;;37.63;22.70;;;-7.00;99.90;;;;;;4993682;28;20484;-70
2022/12/18 02:29:30;;;;;;;39.87;20.00;;;-7.00;99.90;;;;;;4986510;28;20462;-70
2022/12/18 02:32:02;;;;;;;46.40;24.87;;;-7.00;99.90;;;;;;4993660;28;20434;-70
2022/12/18 02:34:36;;;;;;;37.93;22.87;;;-7.00;99.90;;;;;;4991418;28;20434;-70
2022/12/18 02:37:05;;;;;;;39.80;20.40;;;-7.00;99.90;;;;;;4992913;28;20453;-70
2022/12/18 02:39:34;;;;;;;32.60;18.50;;;-7.00;99.90;;;;;;4998147;28;20452;-70
2022/12/18 02:42:02;;;;;;;32.20;19.27;;;-7.10;99.90;;;;;;4997448;28;20474;-70
2022/12/18 02:44:27;;;;;;;33.97;20.40;;;-7.10;99.90;;;;;;4985492;28;20447;-69
2022/12/18 02:46:54;;;;;;;37.70;21.90;;;-7.10;99.90;;;;;;4993782;28;20497;-69
2022/12/18 02:49:40;;;;;;;36.70;19.90;;;-7.10;99.90;;;;;;4994177;28;20275;-69
2022/12/18 02:52:11;;;;;;;30.87;19.20;;;-7.20;99.90;;;;;;4999683;28;20974;-69
2022/12/18 02:54:58;;;;;;;31.50;19.13;;;-7.20;99.90;;;;;;4987344;28;20430;-70
2022/12/18 02:57:30;;;;;;;35.63;19.17;;;-7.20;99.90;;;;;;4989924;28;20478;-69
2022/12/18 03:00:01;;;;;;;29.27;17.20;;;-7.20;99.90;;;;;;4990212;28;20504;-69
2022/12/18 03:02:56;;;;;;;35.60;21.20;;;-7.20;99.90;;;;;;4993812;28;20465;-69
2022/12/18 03:05:33;;;;;;;32.40;20.40;;;-7.20;99.90;;;;;;4990187;28;20896;-69
2022/12/18 03:08:05;;;;;;;27.97;18.80;;;-7.20;99.90;;;;;;4991236;28;20450;-70
2022/12/18 03:10:34;;;;;;;35.33;19.03;;;-7.20;99.90;;;;;;4993338;28;20474;-70
2022/12/18 03:13:08;;;;;;;37.47;20.40;;;-7.20;99.90;;;;;;4989696;28;20528;-69
2022/12/18 03:15:42;;;;;;;42.03;19.97;;;-7.20;99.90;;;;;;4984180;28;20842;-69
2022/12/18 03:18:19;;;;;;;34.20;19.93;;;-7.20;99.90;;;;;;4992077;28;20446;-69
2022/12/18 03:20:46;;;;;;;41.53;21.53;;;-7.20;99.90;;;;;;4990310;28;20434;-69
2022/12/18 03:23:17;;;;;;;34.80;20.30;;;-7.20;99.90;;;;;;4987325;28;20434;-69
2022/12/18 03:25:45;;;;;;;32.67;19.53;;;-7.30;99.90;;;;;;4985927;28;20467;-69
2022/12/18 03:28:15;;;;;;;37.20;20.03;;;-7.30;99.90;;;;;;4987062;28;20439;-70
2022/12/18 03:30:43;;;;;;;37.93;18.93;;;-7.30;99.90;;;;;;4987266;28;20459;-69
2022/12/18 03:33:34;;;;;;;35.63;18.97;;;-7.40;99.90;;;;;;4990639;28;20512;-69
2022/12/18 03:36:00;;;;;;;29.67;19.17;;;-7.40;99.90;;;;;;4984051;28;20536;-70
2022/12/18 03:38:26;;;;;;;37.33;21.67;;;-7.40;99.90;;;;;;4990341;28;20874;-70
2022/12/18 03:40:54;;;;;;;35.60;19.40;;;-7.40;99.90;;;;;;4991006;28;20462;-70
2022/12/18 03:43:31;;;;;;;44.17;21.87;;;-7.40;99.90;;;;;;4992394;28;20716;-70
2022/12/18 03:46:10;;;;;;;37.17;20.00;;;-7.40;99.90;;;;;;4991080;28;20458;-70
2022/12/18 03:48:43;;;;;;;39.00;21.00;;;-7.50;99.90;;;;;;4983096;28;20437;-70
2022/12/18 03:51:18;;;;;;;33.10;19.23;;;-7.50;99.90;;;;;;4989592;28;20875;-69
2022/12/18 03:53:53;;;;;;;34.57;18.10;;;-7.60;99.90;;;;;;4991176;28;20470;-69
2022/12/18 03:56:22;;;;;;;32.93;18.57;;;-7.60;99.90;;;;;;4992528;28;20828;-69
2022/12/18 03:58:49;;;;;;;39.17;21.03;;;-7.60;99.90;;;;;;4985679;28;20435;-69
2022/12/18 04:01:17;;;;;;;26.67;19.57;;;-7.60;99.90;;;;;;4990710;28;20450;-69
2022/12/18 04:03:46;;;;;;;36.33;20.13;;;-7.60;99.90;;;;;;4992289;28;20804;-70
2022/12/18 04:06:13;;;;;;;33.00;18.97;;;-7.70;99.90;;;;;;4988047;28;20561;-69
2022/12/18 04:08:40;;;;;;;26.83;16.63;;;-7.70;99.90;;;;;;4991618;28;20971;-69
2022/12/18 04:11:05;;;;;;;32.07;18.13;;;-7.80;99.90;;;;;;4990475;28;20497;-69
2022/12/18 04:13:38;;;;;;;31.87;18.80;;;-7.80;99.90;;;;;;4991232;28;20956;-69
2022/12/18 04:16:04;;;;;;;26.90;17.03;;;-7.80;99.90;;;;;;4990989;28;20294;-70
2022/12/18 04:18:30;;;;;;;28.33;18.97;;;-7.80;99.90;;;;;;4998160;28;20607;-69
2022/12/18 04:20:56;;;;;;;28.30;17.63;;;-7.80;99.90;;;;;;4991769;28;20443;-69
2022/12/18 04:23:21;;;;;;;34.27;19.50;;;-7.80;99.90;;;;;;4996753;28;20502;-69
2022/12/18 04:25:47;;;;;;;34.40;19.80;;;-7.80;99.90;;;;;;4992944;28;20241;-69
2022/12/18 04:28:13;;;;;;;27.70;19.27;;;-7.90;99.90;;;;;;4992457;28;20183;-70
2022/12/18 04:30:39;;;;;;;28.27;19.23;;;-7.90;99.90;;;;;;4992617;28;20828;-70
2022/12/18 04:33:12;;;;;;;35.73;19.50;;;-8.00;99.90;;;;;;4989244;28;20202;-69
2022/12/18 04:35:39;;;;;;;34.67;18.50;;;-8.00;99.90;;;;;;4986678;28;20176;-69
2022/12/18 04:38:06;;;;;;;33.87;17.60;;;-8.10;99.90;;;;;;4986025;28;20435;-69
2022/12/18 04:40:36;;;;;;;40.03;17.97;;;-8.00;99.90;;;;;;4987536;28;20439;-69
2022/12/18 04:43:03;;;;;;;35.23;20.93;;;-8.10;99.90;;;;;;4990925;28;20533;-69
2022/12/18 04:45:29;;;;;;;32.17;18.70;;;-8.20;99.90;;;;;;4986563;28;20442;-69
2022/12/18 04:47:57;;;;;;;32.80;19.00;;;-8.30;99.90;;;;;;4992474;28;20470;-69
2022/12/18 04:50:23;;;;;;;44.93;21.00;;;-8.40;99.90;;;;;;4983515;28;20803;-70
2022/12/18 04:52:48;;;;;;;38.73;18.60;;;-8.40;99.90;;;;;;4988928;28;20450;-69
2022/12/18 04:55:14;;;;;;;42.07;23.33;;;-8.40;99.90;;;;;;4991868;28;20691;-69
2022/12/18 04:57:39;;;;;;;40.17;21.73;;;-8.30;99.90;;;;;;4991714;28;20223;-69
2022/12/18 05:00:05;;;;;;;40.43;22.60;;;-8.30;99.90;;;;;;4991265;28;20704;-69
2022/12/18 05:02:31;;;;;;;35.50;22.33;;;-8.50;99.90;;;;;;4989175;28;20184;-69
2022/12/18 05:04:57;;;;;;;34.23;20.60;;;-8.60;99.90;;;;;;4992301;28;20454;-69
2022/12/18 05:07:22;;;;;;;36.23;20.73;;;-8.70;99.90;;;;;;4984172;28;20221;-69
2022/12/18 05:09:48;;;;;;;32.83;19.83;;;-8.80;99.90;;;;;;4990680;28;20210;-69
2022/12/18 05:12:13;;;;;;;46.47;22.97;;;-8.80;99.90;;;;;;4990685;28;20656;-69
2022/12/18 05:14:39;;;;;;;31.20;17.87;;;-8.90;99.90;;;;;;4990123;28;20179;-69
2022/12/18 05:17:04;;;;;;;40.50;20.27;;;-8.90;99.90;;;;;;4991789;28;20203;-69
2022/12/18 05:19:30;;;;;;;46.13;22.03;;;-9.00;99.90;;;;;;4989270;28;20649;-69
2022/12/18 05:21:55;;;;;;;35.47;22.20;;;-9.00;99.90;;;;;;4990211;28;20184;-69
2022/12/18 05:24:21;;;;;;;34.30;19.60;;;-9.00;99.90;;;;;;4989767;28;20651;-69
2022/12/18 05:26:46;;;;;;;35.97;18.20;;;-9.00;99.90;;;;;;4991920;28;20329;-69
2022/12/18 05:29:12;;;;;;;33.00;19.10;;;-8.90;99.90;;;;;;4991458;28;20207;-69
2022/12/18 05:31:38;;;;;;;39.97;22.10;;;-8.90;99.90;;;;;;4991862;28;20176;-69
2022/12/18 05:34:04;;;;;;;31.90;19.10;;;-8.80;99.90;;;;;;4990290;28;20555;-69
2022/12/18 05:36:30;;;;;;;38.73;21.20;;;-8.70;99.90;;;;;;4991689;28;20541;-69
2022/12/18 05:38:55;;;;;;;40.37;21.43;;;-8.70;99.90;;;;;;4986826;28;20442;-69
2022/12/18 05:41:21;;;;;;;40.77;21.30;;;-8.60;99.90;;;;;;4989695;28;20211;-69
2022/12/18 05:43:46;;;;;;;31.63;19.67;;;-8.60;99.90;;;;;;4991103;28;20183;-69
2022/12/18 05:46:17;;;;;;;39.63;22.63;;;-8.60;99.90;;;;;;4990509;28;20208;-70
2022/12/18 05:48:44;;;;;;;36.20;22.03;;;-8.60;99.90;;;;;;4991341;28;20664;-69
2022/12/18 05:51:11;;;;;;;38.67;19.87;;;-8.60;99.90;;;;;;4988682;28;20446;-69
2022/12/18 05:53:38;;;;;;;34.60;18.00;;;-8.60;99.90;;;;;;4990617;28;20928;-69
2022/12/18 05:56:06;;;;;;;31.80;20.40;;;-8.60;99.90;;;;;;4989090;28;20977;-70
2022/12/18 05:58:32;;;;;;;35.93;19.07;;;-8.60;99.90;;;;;;4991164;28;20786;-69
2022/12/18 06:01:05;;;;;;;34.63;18.63;;;-8.60;99.90;;;;;;4990763;28;20450;-69
2022/12/18 06:03:31;;;;;;;36.50;21.03;;;-8.60;99.90;;;;;;4990369;28;20438;-69
2022/12/18 06:05:56;;;;;;;41.30;20.73;;;-8.60;99.90;;;;;;4990021;28;20492;-68
2022/12/18 06:08:22;;;;;;;33.77;21.17;;;-8.60;99.90;;;;;;4991063;28;20190;-68
2022/12/18 06:10:51;;;;;;;28.57;19.57;;;-8.60;99.90;;;;;;4989662;28;20207;-69
2022/12/18 06:13:17;;;;;;;31.07;19.07;;;-8.60;99.90;;;;;;4991661;28;20188;-68
2022/12/18 06:15:42;;;;;;;36.63;19.00;;;-8.70;99.90;;;;;;4987854;28;20581;-69
2022/12/18 06:18:08;;;;;;;38.23;18.60;;;-8.70;99.90;;;;;;4990608;28;20184;-68
2022/12/18 06:20:36;;;;;;;29.23;17.53;;;-8.60;99.90;;;;;;4988832;28;20183;-68
2022/12/18 06:23:01;;;;;;;33.30;20.10;;;-8.60;99.90;;;;;;4986597;28;20269;-68
2022/12/18 06:25:27;;;;;;;36.70;21.00;;;-8.60;99.90;;;;;;4990268;28;20573;-68
2022/12/18 06:27:53;;;;;;;31.87;18.87;;;-8.60;99.90;;;;;;4991455;28;20366;-68
2022/12/18 06:30:18;;;;;;;34.50;18.50;;;-8.70;99.90;;;;;;4989339;28;20207;-68
2022/12/18 06:32:44;;;;;;;34.50;20.20;;;-8.70;99.90;;;;;;4993792;28;20529;-68
2022/12/18 06:35:10;;;;;;;39.83;21.60;;;-8.70;99.90;;;;;;4993762;28;20301;-68
2022/12/18 06:37:35;;;;;;;32.17;19.67;;;-8.70;99.90;;;;;;4995413;28;20195;-69
2022/12/18 06:40:01;;;;;;;41.17;21.17;;;-8.70;99.90;;;;;;4993838;28;20266;-68
2022/12/18 06:42:26;;;;;;;33.23;19.03;;;-8.70;99.90;;;;;;4993289;28;20307;-68
2022/12/18 06:44:52;;;;;;;44.87;22.07;;;-8.70;99.90;;;;;;4995206;28;20183;-68
2022/12/18 06:47:18;;;;;;;34.57;19.80;;;-8.60;99.90;;;;;;4993483;28;20207;-70
2022/12/18 06:49:44;;;;;;;31.40;18.53;;;-8.60;99.90;;;;;;4994087;28;20207;-70
2022/12/18 06:52:09;;;;;;;34.60;20.47;;;-8.60;99.90;;;;;;4991389;28;20803;-70
2022/12/18 06:54:35;;;;;;;30.30;17.83;;;-8.60;99.90;;;;;;4991492;28;20184;-70
2022/12/18 06:57:00;;;;;;;35.50;20.73;;;-8.70;99.90;;;;;;4991532;28;20257;-70
2022/12/18 06:59:26;;;;;;;28.63;18.47;;;-8.70;99.90;;;;;;4993839;28;20190;-70
2022/12/18 07:01:51;;;;;;;36.07;21.53;;;-8.70;99.90;;;;;;4993880;28;20179;-70
2022/12/18 07:04:17;;;;;;;35.90;20.47;;;-8.70;99.90;;;;;;4994103;28;20214;-70
2022/12/18 07:06:42;;;;;;;40.57;18.73;;;-8.70;99.90;;;;;;4992676;28;20296;-70
2022/12/18 07:09:08;;;;;;;35.90;22.53;;;-8.70;99.90;;;;;;4993488;28;20211;-70
2022/12/18 07:11:33;;;;;;;41.13;21.07;;;-8.70;99.90;;;;;;4993967;28;20183;-70
2022/12/18 07:13:59;;;;;;;35.33;18.90;;;-8.70;99.90;;;;;;4990946;28;20179;-70
2022/12/18 07:16:25;;;;;;;28.40;17.23;;;-8.70;99.90;;;;;;4992664;28;20195;-70
2022/12/18 07:18:50;;;;;;;32.40;20.23;;;-8.80;99.90;;;;;;4993591;28;20210;-70
2022/12/18 07:21:19;;;;;;;35.10;18.90;;;-8.70;99.90;;;;;;4994073;28;20188;-70
2022/12/18 07:23:47;;;;;;;42.93;21.50;;;-8.70;99.90;;;;;;4989490;28;20653;-70
2022/12/18 07:26:15;;;;;;;33.43;18.20;;;-8.60;99.90;;;;;;4993492;28;20454;-70
2022/12/18 07:28:41;;;;;;;29.00;18.67;;;-8.60;99.90;;;;;;4986710;28;20496;-70
2022/12/18 07:31:14;;;;;;;35.53;20.90;;;-8.50;99.90;;;;;;4992810;28;20442;-70
2022/12/18 07:33:39;;;;;;;44.93;21.93;;;-8.40;99.90;;;;;;4989788;28;20850;-71
2022/12/18 07:36:07;;;;;;;47.17;21.50;;;-8.30;99.90;;;;;;4992904;28;20454;-69
2022/12/18 07:38:34;;;;;;;31.03;20.73;;;-8.20;99.90;;;;;;4981057;28;20179;-70
2022/12/18 07:41:01;;;;;;;35.10;19.87;;;-8.20;99.90;;;;;;4993643;28;20485;-70
2022/12/18 07:43:27;;;;;;;32.83;18.83;;;-8.20;99.90;;;;;;4979219;28;20516;-71
2022/12/18 07:45:52;;;;;;;30.50;18.93;;;-8.10;99.90;;;;;;4990423;28;20459;-70
2022/12/18 07:48:18;;;;;;;35.63;20.67;;;-8.00;99.90;;;;;;4993475;28;20187;-70
2022/12/18 07:50:43;;;;;;;37.33;20.73;;;-7.60;99.90;;;;;;4993417;28;20203;-70
2022/12/18 07:53:09;;;;;;;31.53;20.40;;;-6.90;99.90;;;;;;4983002;28;20180;-70
2022/12/18 07:55:35;;;;;;;34.03;19.40;;;-6.10;99.90;;;;;;4992705;28;20180;-71
2022/12/18 07:58:02;;;;;;;43.17;20.87;;;-5.50;99.90;;;;;;4992652;28;20168;-70
2022/12/18 08:00:28;;;;;;;35.80;24.07;;;-4.80;99.90;;;;;;4979484;28;20615;-71
2022/12/18 08:02:54;;;;;;;32.67;20.70;;;-4.30;99.90;;;;;;4992770;28;20533;-70
2022/12/18 08:05:20;;;;;;;30.90;19.77;;;-3.90;99.90;;;;;;4987034;28;20191;-70
2022/12/18 08:07:46;;;;;;;34.50;19.97;;;-3.20;99.90;;;;;;4992979;28;20211;-71
2022/12/18 08:10:12;;;;;;;38.53;22.20;;;-2.70;99.90;;;;;;4991629;28;20466;-71
2022/12/18 08:12:38;;;;;;;29.50;19.47;;;-2.20;99.90;;;;;;4992202;28;20994;-70
2022/12/18 08:15:04;;;;;;;33.57;21.87;;;-1.70;99.90;;;;;;4991487;28;20187;-70
2022/12/18 08:17:29;;;;;;;33.60;20.57;;;-1.10;99.90;;;;;;4992148;28;20561;-70
2022/12/18 08:19:55;;;;;;;31.20;21.87;;;-1.10;99.90;;;;;;4991789;28;20435;-71
2022/12/18 08:22:20;;;;;;;32.40;22.43;;;-0.10;99.90;;;;;;4990517;28;20634;-71
2022/12/18 08:24:46;;;;;;;41.90;25.43;;;0.70;99.60;;;;;;4991136;28;20262;-72
2022/12/18 08:27:12;;;;;;;31.33;23.57;;;1.30;96.70;;;;;;4992353;28;20266;-73
2022/12/18 08:29:38;;;;;;;30.57;21.80;;;2.00;96.20;;;;;;4990682;28;20198;-71
2022/12/18 08:32:03;;;;;;;35.57;21.10;;;2.30;96.20;;;;;;4992145;28;20180;-72
2022/12/18 08:34:29;;;;;;;32.10;20.50;;;3.40;94.20;;;;;;4991342;28;20442;-72
2022/12/18 08:36:54;;;;;;;32.50;22.57;;;4.20;92.10;;;;;;4991477;28;20598;-72
2022/12/18 08:39:20;;;;;;;28.60;21.30;;;5.00;88.90;;;;;;4991205;28;20180;-70
2022/12/18 08:44:37;;;;;;;31.93;22.40;;;5.20;85.10;;;;;;4989930;28;20188;-73
2022/12/18 08:44:41;;;;;;;30.20;21.87;;;5.10;86.70;;;;;;4990073;28;20179;-72
2022/12/18 08:47:07;;;;;;;26.90;20.80;;;5.20;83.20;;;;;;4992021;28;20460;-72
2022/12/18 08:49:34;;;;;;;31.43;22.60;;;5.30;81.00;;;;;;4991151;28;20494;-72
2022/12/18 08:52:00;;;;;;;28.73;21.90;;;5.90;80.70;;;;;;4991252;28;20442;-71
2022/12/18 08:54:25;;;;;;;27.90;22.23;;;6.70;77.10;;;;;;4988746;28;20439;-71
2022/12/18 08:56:51;;;;;;;27.13;21.00;;;6.80;73.00;;;;;;4989838;28;20677;-72
2022/12/18 08:59:18;;;;;;;33.67;23.27;;;6.70;73.10;;;;;;4990782;28;20192;-72
2022/12/18 09:01:44;;;;;;;28.97;23.17;;;7.40;73.20;;;;;;4991259;28;20187;-72
2022/12/18 09:04:10;;;;;;;30.60;22.87;;;7.10;72.00;;;;;;4989069;28;22106;-71
2022/12/18 09:06:36;;;;;;;30.27;22.83;;;6.70;73.50;;;;;;4991758;28;20501;-72
2022/12/18 09:09:03;;;;;;;29.90;21.37;;;5.70;77.10;;;;;;4990786;28;20207;-72
2022/12/18 09:11:29;;;;;;;27.90;21.63;;;3.80;81.70;;;;;;4992314;28;20438;-71
2022/12/18 09:13:55;;;;;;;34.23;23.07;;;2.50;91.40;;;;;;4990262;28;20442;-71
2022/12/18 09:16:23;;;;;;;30.33;22.50;;;2.40;94.10;;;;;;4990823;28;20454;-71
2022/12/18 09:18:48;;;;;;;29.90;22.63;;;2.30;95.90;;;;;;4987925;28;20427;-71
2022/12/18 09:21:17;;;;;;;30.93;21.23;;;2.80;95.40;;;;;;4989751;28;20445;-69
2022/12/18 09:23:43;;;;;;;29.00;20.73;;;2.90;95.10;;;;;;4986508;28;20197;-71
2022/12/18 09:26:09;;;;;;;29.43;22.00;;;4.50;93.30;;;;;;4996269;28;20994;-71
2022/12/18 09:28:35;;;;;;;30.90;23.57;;;5.70;88.40;;;;;;4986359;28;20494;-71
2022/12/18 09:31:06;;;;;;;33.03;24.57;;;6.00;83.80;;;;;;4991647;28;20556;-72
2022/12/18 09:33:32;;;;;;;35.40;25.73;;;7.20;82.00;;;;;;4989318;28;20167;-73
2022/12/18 09:35:57;;;;;;;31.77;23.97;;;8.00;76.80;;;;;;4990773;28;20454;-71
2022/12/18 09:38:23;;;;;;;31.97;24.77;;;6.60;78.20;;;;;;4984571;28;20184;-72
2022/12/18 09:40:52;;;;;;;34.10;24.47;;;5.60;85.20;;;;;;4990598;28;20200;-72
2022/12/18 09:43:24;;;;;;;32.13;24.70;;;5.70;84.60;;;;;;4990867;28;20191;-71
2022/12/18 09:45:56;;;;;;;32.43;22.97;;;5.70;88.30;;;;;;4986563;28;20466;-72
2022/12/18 09:48:29;;;;;;;32.83;23.87;;;5.90;84.50;;;;;;4990503;28;20439;-70
2022/12/18 09:51:02;;;;;;;31.63;23.30;;;7.80;82.80;;;;;;4987435;28;20470;-70
2022/12/18 09:53:32;;;;;;;26.77;22.20;;;9.00;73.10;;;;;;4986496;28;20439;-71
2022/12/18 09:56:00;;;;;;;26.33;21.47;;;9.60;71.00;;;;;;4990232;28;20467;-70
2022/12/18 09:58:44;;;;;;;27.07;22.40;;;10.80;67.00;;;;;;4981488;28;20494;-70
2022/12/18 10:01:21;;;;;;;27.93;23.37;;;10.80;61.70;;;;;;4983359;28;20442;-70
2022/12/18 10:03:47;;;;;;;28.77;21.93;;;9.80;61.10;;;;;;4983043;28;20443;-71
2022/12/18 10:06:27;;;;;;;34.73;24.60;;;9.10;66.20;;;;;;4987391;28;20905;-71
2022/12/18 10:08:56;;;;;;;28.33;22.57;;;9.10;66.90;;;;;;4987595;28;20437;-71
2022/12/18 10:11:34;;;;;;;29.77;25.17;;;9.60;65.10;;;;;;4991067;28;20853;-70
2022/12/18 10:14:27;;;;;;;31.60;24.57;;;10.50;63.30;;;;;;4990245;28;20426;-70
2022/12/18 10:17:17;;;;;;;29.53;23.30;;;11.10;60.30;;;;;;4992945;28;21040;-70
2022/12/18 10:19:58;;;;;;;30.10;24.70;;;12.50;58.10;;;;;;4993665;28;20442;-70
2022/12/18 10:22:30;;;;;;;29.53;25.23;;;13.20;56.00;;;;;;4989377;28;20963;-72
2022/12/18 10:25:01;;;;;;;28.70;25.00;;;13.70;54.30;;;;;;4992771;28;20456;-71
2022/12/18 10:27:28;;;;;;;28.40;23.43;;;12.30;53.90;;;;;;4989907;28;20469;-71
2022/12/18 10:29:54;;;;;;;27.47;23.27;;;12.90;55.10;;;;;;4994615;28;20565;-72
2022/12/18 10:32:23;;;;;;;30.43;25.73;;;12.00;54.80;;;;;;4997999;28;20446;-71
2022/12/18 10:34:50;;;;;;;29.33;23.10;;;11.40;56.80;;;;;;4994130;28;20485;-72
2022/12/18 10:37:19;;;;;;;29.43;23.33;;;12.00;56.00;;;;;;4990691;28;20446;-72
2022/12/18 10:39:45;;;;;;;34.00;23.57;;;10.80;55.70;;;;;;4992161;28;20446;-72
2022/12/18 10:42:17;;;;;;;27.03;23.10;;;8.90;59.10;;;;;;4987697;28;20853;-73
2022/12/18 10:44:42;;;;;;;31.00;23.10;;;9.30;60.90;;;;;;4995638;28;20533;-70
2022/12/18 10:47:14;;;;;;;31.60;24.17;;;9.30;59.70;;;;;;4992677;28;20581;-72
2022/12/18 10:49:49;;;;;;;29.10;21.93;;;8.20;61.50;;;;;;4988636;28;20226;-70
2022/12/18 10:52:20;;;;;;;30.60;22.73;;;7.10;66.40;;;;;;4994442;28;20439;-70
2022/12/18 10:55:04;;;;;;;30.87;22.90;;;6.40;70.80;;;;;;4992849;28;20438;-69
2022/12/18 10:57:35;;;;;;;30.70;19.77;;;6.40;73.10;;;;;;4979700;28;20542;-69
2022/12/18 11:00:28;;;;;;;28.23;21.47;;;7.10;74.50;;;;;;4990781;28;20446;-71
2022/12/18 11:02:55;;;;;;;29.20;20.17;;;7.90;70.10;;;;;;4987018;28;20459;-69
2022/12/18 11:05:24;;;;;;;29.90;20.77;;;7.70;70.10;;;;;;4994327;28;20855;-69
2022/12/18 11:07:50;;;;;;;29.00;20.87;;;7.20;72.10;;;;;;4993386;28;20462;-69
2022/12/18 11:10:21;;;;;;;35.50;23.60;;;7.70;70.30;;;;;;4991190;28;20493;-71
2022/12/18 11:12:47;;;;;;;28.90;20.13;;;7.90;70.90;;;;;;4987985;28;20864;-70
2022/12/18 11:15:31;;;;;;;30.60;23.03;;;9.80;65.80;;;;;;4992319;28;20467;-70
2022/12/18 11:17:56;;;;;;;29.27;21.43;;;10.60;64.20;;;;;;4989335;28;20434;-69
2022/12/18 11:20:35;;;;;;;31.07;23.70;;;12.80;58.70;;;;;;4988812;28;20452;-69
2022/12/18 11:23:05;;;;;;;30.00;23.43;;;13.30;55.70;;;;;;4990149;28;20183;-70
2022/12/18 11:25:32;;;;;;;29.73;22.30;;;12.70;54.90;;;;;;4992318;28;20502;-69
2022/12/18 11:28:04;;;;;;;30.47;24.60;;;11.70;56.10;;;;;;4987545;28;20477;-70
2022/12/18 11:30:35;;;;;;;30.03;21.37;;;10.60;58.00;;;;;;4992469;28;20489;-68
2022/12/18 11:33:17;;;;;;;29.63;21.73;;;9.80;61.10;;;;;;4991791;28;20570;-69
2022/12/18 11:35:56;;;;;;;31.43;21.20;;;10.30;58.70;;;;;;4991803;28;20450;-69
2022/12/18 11:38:28;;;;;;;34.67;23.50;;;11.00;59.30;;;;;;4990793;28;20434;-70
2022/12/18 11:41:03;;;;;;;27.73;22.33;;;11.00;58.20;;;;;;4993053;28;21022;-70
2022/12/18 11:43:47;;;;;;;29.13;21.90;;;11.10;57.30;;;;;;4985901;28;20801;-71
2022/12/18 11:46:25;;;;;;;30.33;22.10;;;11.60;56.60;;;;;;4991515;28;20473;-70
2022/12/18 11:49:11;;;;;;;31.03;23.20;;;12.00;56.20;;;;;;4988015;28;20442;-69
2022/12/18 11:52:00;;;;;;;31.57;22.87;;;10.60;56.60;;;;;;4987531;28;20589;-69
2022/12/18 11:54:25;;;;;;;33.70;22.73;;;11.40;57.10;;;;;;4989689;28;20470;-70
2022/12/18 11:56:56;;;;;;;30.97;24.93;;;11.50;56.00;;;;;;4991718;28;20581;-70
2022/12/18 11:59:28;;;;;;;33.90;25.13;;;12.00;55.70;;;;;;4988620;28;20729;-70
2022/12/18 12:02:30;;;;;;;36.50;26.90;;;10.60;56.70;;;;;;4990274;28;20509;-69
2022/12/18 12:04:59;;;;;;;38.33;24.70;;;9.10;60.00;;;;;;4985747;28;20540;-69
2022/12/18 12:07:55;;;;;;;30.40;24.00;;;9.40;60.20;;;;;;4985116;28;20479;-70
2022/12/18 12:10:43;;;;;;;34.57;24.40;;;8.90;62.20;;;;;;4986761;28;20475;-70
2022/12/18 12:13:17;;;;;;;32.50;22.67;;;8.60;63.20;;;;;;4974190;28;20529;-69
2022/12/18 12:16:06;;;;;;;37.43;26.70;;;7.90;65.20;;;;;;4984548;28;20810;-70
2022/12/18 12:18:43;;;;;;;33.20;24.80;;;6.70;70.20;;;;;;4982647;28;20440;-70
2022/12/18 12:21:23;;;;;;;34.47;25.30;;;6.30;73.80;;;;;;4988329;28;20438;-69
2022/12/18 12:24:26;;;;;;;33.40;24.60;;;5.50;80.80;;;;;;4990660;28;20804;-70
2022/12/18 12:27:08;;;;;;;39.57;26.73;;;5.60;80.90;;;;;;4989363;28;20486;-70
2022/12/18 12:29:42;;;;;;;36.83;25.67;;;6.70;78.90;;;;;;4985776;28;20478;-68
2022/12/18 12:32:52;;;;;;;40.23;26.17;;;5.90;80.30;;;;;;4987089;28;20470;-70
2022/12/18 12:35:26;;;;;;;39.50;26.07;;;5.40;82.30;;;;;;4990460;28;20474;-69
2022/12/18 12:38:07;;;;;;;47.67;29.73;;;4.70;88.90;;;;;;4991252;28;20430;-70
2022/12/18 12:40:39;;;;;;;41.20;26.70;;;4.10;91.70;;;;;;4982153;28;20460;-69
2022/12/18 12:43:27;;;;;;;41.50;26.07;;;3.80;94.00;;;;;;4988933;28;20472;-69